Observation data for Seagraves on 09/11/2017      Previous  Date       Current Mesonet Observations  Soil Data  Daily Summary Page  Observations in Plain Language
KSGV 110505Z 13004KT 18/09 A3023 RMK A01 T01820092  RH  057%=      5-min Rain = 0
KSGV 110510Z 13003KT 18/09 A3023 RMK A01 T01810091  RH  057%=      5-min Rain = 0
KSGV 110515Z 12004KT 18/09 A3023 RMK A01 T01800091  RH  057%=      5-min Rain = 0
KSGV 110520Z 12004KT 18/09 A3023 RMK A01 T01820092  RH  056%=      5-min Rain = 0
KSGV 110525Z 12004KT 18/09 A3023 RMK A01 T01820092  RH  056%=      5-min Rain = 0
KSGV 110530Z 12004KT 18/09 A3023 RMK A01 T01810091  RH  056%=      5-min Rain = 0
KSGV 110535Z 12004KT 18/09 A3023 RMK A01 T01800090  RH  056%=      5-min Rain = 0
KSGV 110540Z 11005KT 18/09 A3023 RMK A01 T01800090  RH  056%=      5-min Rain = 0
KSGV 110545Z 11004KT 18/09 A3023 RMK A01 T01800089  RH  056%=      5-min Rain = 0
KSGV 110550Z 11005KT 18/09 A3024 RMK A01 T01790090  RH  057%=      5-min Rain = 0
KSGV 110555Z 11005KT 18/09 A3024 RMK A01 T01790090  RH  057%=      5-min Rain = 0
KSGV 110600Z 11004KT 18/09 A3023 RMK A01 T01780090  RH  057%=      5-min Rain = 0
KSGV 110605Z 11004KT 18/09 A3023 RMK A01 T01760089  RH  058%=      5-min Rain = 0
KSGV 110610Z 10002KT 18/09 A3023 RMK A01 T01750089  RH  058%=      5-min Rain = 0
KSGV 110615Z 10003KT 17/09 A3023 RMK A01 T01720090  RH  059%=      5-min Rain = 0
KSGV 110620Z 10003KT 17/09 A3023 RMK A01 T01700090  RH  060%=      5-min Rain = 0
KSGV 110625Z 10003KT 17/09 A3023 RMK A01 T01690089  RH  060%=      5-min Rain = 0
KSGV 110630Z 10002KT 17/09 A3023 RMK A01 T01680089  RH  060%=      5-min Rain = 0
KSGV 110635Z 10003KT 17/09 A3023 RMK A01 T01670089  RH  061%=      5-min Rain = 0
KSGV 110640Z 10003KT 17/09 A3023 RMK A01 T01660089  RH  061%=      5-min Rain = 0
KSGV 110645Z 10003KT 17/09 A3023 RMK A01 T01660090  RH  062%=      5-min Rain = 0
KSGV 110650Z 10003KT 17/09 A3023 RMK A01 T01660090  RH  062%=      5-min Rain = 0
KSGV 110655Z 10003KT 17/09 A3023 RMK A01 T01660090  RH  062%=      5-min Rain = 0
KSGV 110700Z 10003KT 17/09 A3023 RMK A01 T01660090  RH  062%=      5-min Rain = 0
KSGV 110705Z 11003KT 17/09 A3023 RMK A01 T01660090  RH  062%=      5-min Rain = 0
KSGV 110710Z 11003KT 17/09 A3023 RMK A01 T01660090  RH  062%=      5-min Rain = 0
KSGV 110715Z 11003KT 17/09 A3023 RMK A01 T01660089  RH  062%=      5-min Rain = 0
KSGV 110720Z 12004KT 17/09 A3023 RMK A01 T01660090  RH  062%=      5-min Rain = 0
KSGV 110725Z 12003KT 17/09 A3023 RMK A01 T01650090  RH  062%=      5-min Rain = 0
KSGV 110730Z 12004KT 16/09 A3023 RMK A01 T01640090  RH  063%=      5-min Rain = 0
KSGV 110735Z 12003KT 16/09 A3023 RMK A01 T01630091  RH  063%=      5-min Rain = 0
KSGV 110740Z 13002KT 16/09 A3023 RMK A01 T01620091  RH  064%=      5-min Rain = 0
KSGV 110745Z 12002KT 16/09 A3023 RMK A01 T01600092  RH  065%=      5-min Rain = 0
KSGV 110750Z 13002KT 16/09 A3022 RMK A01 T01590092  RH  065%=      5-min Rain = 0
KSGV 110755Z 13002KT 16/09 A3022 RMK A01 T01580092  RH  066%=      5-min Rain = 0
KSGV 110800Z 12003KT 16/09 A3022 RMK A01 T01580092  RH  066%=      5-min Rain = 0
KSGV 110805Z 12002KT 16/09 A3022 RMK A01 T01570091  RH  066%=      5-min Rain = 0
KSGV 110810Z 12002KT 16/09 A3022 RMK A01 T01550091  RH  067%=      5-min Rain = 0
KSGV 110815Z 12002KT 15/09 A3022 RMK A01 T01540091  RH  067%=      5-min Rain = 0
KSGV 110820Z 12002KT 15/09 A3022 RMK A01 T01530091  RH  067%=      5-min Rain = 0
KSGV 110825Z 11002KT 15/09 A3022 RMK A01 T01520089  RH  067%=      5-min Rain = 0
KSGV 110830Z 11002KT 15/09 A3022 RMK A01 T01470086  RH  068%=      5-min Rain = 0
KSGV 110835Z 10002KT 14/09 A3022 RMK A01 T01400085  RH  071%=      5-min Rain = 0
KSGV 110840Z 09002KT 14/09 A3022 RMK A01 T01410090  RH  072%=      5-min Rain = 0
KSGV 110845Z 09003KT 14/09 A3023 RMK A01 T01440090  RH  071%=      5-min Rain = 0
KSGV 110850Z 09002KT 15/09 A3022 RMK A01 T01460090  RH  070%=      5-min Rain = 0
KSGV 110855Z 09002KT 15/09 A3022 RMK A01 T01470090  RH  070%=      5-min Rain = 0
KSGV 110900Z 09002KT 15/09 A3022 RMK A01 T01480090  RH  069%=      5-min Rain = 0
KSGV 110905Z 09001KT 15/09 A3022 RMK A01 T01480089  RH  069%=      5-min Rain = 0
KSGV 110910Z 09002KT 14/09 A3022 RMK A01 T01440086  RH  069%=      5-min Rain = 0
KSGV 110915Z 10001KT 14/09 A3022 RMK A01 T01380086  RH  072%=      5-min Rain = 0
KSGV 110920Z 10001KT 13/09 A3022 RMK A01 T01310088  RH  076%=      5-min Rain = 0
KSGV 110925Z 09002KT 13/09 A3022 RMK A01 T01260089  RH  080%=      5-min Rain = 0
KSGV 110930Z 08002KT 12/09 A3022 RMK A01 T01230090  RH  082%=      5-min Rain = 0
KSGV 110935Z 09001KT 12/09 A3022 RMK A01 T01220090  RH  082%=      5-min Rain = 0
KSGV 110940Z 09001KT 12/09 A3022 RMK A01 T01210090  RH  083%=      5-min Rain = 0
KSGV 110945Z 09001KT 12/09 A3022 RMK A01 T01190090  RH  083%=      5-min Rain = 0
KSGV 110950Z 09000KT 12/09 A3022 RMK A01 T01180090  RH  084%=      5-min Rain = 0
KSGV 110955Z 09000KT 12/09 A3022 RMK A01 T01170091  RH  085%=      5-min Rain = 0
KSGV 111000Z 08002KT 12/09 A3022 RMK A01 T01170091  RH  086%=      5-min Rain = 0
KSGV 111005Z 08002KT 12/09 A3022 RMK A01 T01180093  RH  086%=      5-min Rain = 0
KSGV 111010Z 08002KT 12/09 A3022 RMK A01 T01200093  RH  085%=      5-min Rain = 0
KSGV 111015Z 09002KT 12/09 A3022 RMK A01 T01220092  RH  083%=      5-min Rain = 0
KSGV 111020Z 08002KT 12/09 A3022 RMK A01 T01220091  RH  082%=      5-min Rain = 0
KSGV 111025Z 07002KT 12/09 A3022 RMK A01 T01210089  RH  082%=      5-min Rain = 0
KSGV 111030Z 08002KT 12/09 A3022 RMK A01 T01180089  RH  083%=      5-min Rain = 0
KSGV 111035Z 09002KT 12/09 A3022 RMK A01 T01180091  RH  085%=      5-min Rain = 0
KSGV 111040Z 10001KT 12/09 A3022 RMK A01 T01170089  RH  084%=      5-min Rain = 0
KSGV 111045Z 10001KT 12/09 A3022 RMK A01 T01150088  RH  085%=      5-min Rain = 0
KSGV 111050Z 00000KT 11/09 A3022 RMK A01 T01140088  RH  085%=      5-min Rain = 0
KSGV 111055Z 00000KT 11/09 A3023 RMK A01 T01120087  RH  086%=      5-min Rain = 0
KSGV 111100Z 00000KT 11/09 A3023 RMK A01 T01090085  RH  086%=      5-min Rain = 0
KSGV 111105Z 00000KT 11/09 A3023 RMK A01 T01070085  RH  087%=      5-min Rain = 0
KSGV 111110Z 00000KT 11/09 A3023 RMK A01 T01060085  RH  088%=      5-min Rain = 0
KSGV 111115Z 00000KT 11/09 A3023 RMK A01 T01060085  RH  089%=      5-min Rain = 0
KSGV 111120Z 00000KT 11/09 A3023 RMK A01 T01060086  RH  089%=      5-min Rain = 0
KSGV 111125Z 03000KT 11/09 A3023 RMK A01 T01060086  RH  089%=      5-min Rain = 0
KSGV 111130Z 02001KT 11/09 A3023 RMK A01 T01060085  RH  088%=      5-min Rain = 0
KSGV 111135Z 01002KT 11/08 A3023 RMK A01 T01050084  RH  088%=      5-min Rain = 0
KSGV 111140Z 01002KT 11/08 A3024 RMK A01 T01050084  RH  088%=      5-min Rain = 0
KSGV 111145Z 01002KT 10/08 A3024 RMK A01 T01040082  RH  088%=      5-min Rain = 0
KSGV 111150Z 00002KT 11/08 A3024 RMK A01 T01050083  RH  088%=      5-min Rain = 0
KSGV 111155Z 35002KT 11/09 A3024 RMK A01 T01060085  RH  088%=      5-min Rain = 0
KSGV 111200Z 35002KT 11/08 A3024 RMK A01 T01060084  RH  088%=      5-min Rain = 0
KSGV 111205Z 35002KT 11/08 A3024 RMK A01 T01060084  RH  088%=      5-min Rain = 0
KSGV 111210Z 35003KT 11/08 A3024 RMK A01 T01050084  RH  088%=      5-min Rain = 0
KSGV 111215Z 35003KT 11/09 A3024 RMK A01 T01060085  RH  088%=      5-min Rain = 0
KSGV 111220Z 35003KT 11/09 A3024 RMK A01 T01080086  RH  088%=      5-min Rain = 0
KSGV 111225Z 35002KT 11/09 A3024 RMK A01 T01080086  RH  088%=      5-min Rain = 0
KSGV 111230Z 35003KT 11/09 A3024 RMK A01 T01080086  RH  087%=      5-min Rain = 0
KSGV 111235Z 36002KT 11/08 A3024 RMK A01 T01070084  RH  087%=      5-min Rain = 0
KSGV 111240Z 00002KT 11/08 A3024 RMK A01 T01060084  RH  088%=      5-min Rain = 0
KSGV 111245Z 00003KT 11/08 A3024 RMK A01 T01060084  RH  088%=      5-min Rain = 0
KSGV 111250Z 01003KT 11/08 A3024 RMK A01 T01070083  RH  087%=      5-min Rain = 0
KSGV 111255Z 01002KT 11/09 A3024 RMK A01 T01100085  RH  086%=      5-min Rain = 0
KSGV 111300Z 01002KT 11/09 A3024 RMK A01 T01120086  RH  085%=      5-min Rain = 0
KSGV 111305Z 35002KT 12/09 A3024 RMK A01 T01150088  RH  085%=      5-min Rain = 0
KSGV 111310Z 35003KT 12/09 A3024 RMK A01 T01190092  RH  085%=      5-min Rain = 0
KSGV 111315Z 00003KT 12/10 A3024 RMK A01 T01230095  RH  085%=      5-min Rain = 0
KSGV 111320Z 00002KT 13/10 A3024 RMK A01 T01280098  RH  083%=      5-min Rain = 0
KSGV 111325Z 35002KT 13/10 A3024 RMK A01 T01320099  RH  082%=      5-min Rain = 0
KSGV 111330Z 33002KT 14/10 A3024 RMK A01 T01360101  RH  080%=      5-min Rain = 0
KSGV 111335Z 33002KT 14/10 A3024 RMK A01 T01390100  RH  079%=      5-min Rain = 0
KSGV 111340Z 34002KT 14/10 A3024 RMK A01 T01400099  RH  077%=      5-min Rain = 0
KSGV 111345Z 34002KT 14/10 A3024 RMK A01 T01440101  RH  077%=      5-min Rain = 0
KSGV 111350Z 35002KT 15/10 A3024 RMK A01 T01490101  RH  075%=      5-min Rain = 0
KSGV 111355Z 34002KT 15/10 A3024 RMK A01 T01540102  RH  072%=      5-min Rain = 0
KSGV 111400Z 33001KT 16/10 A3024 RMK A01 T01590103  RH  070%=      5-min Rain = 0
KSGV 111405Z 34001KT 17/10 A3024 RMK A01 T01650104  RH  068%=      5-min Rain = 0
KSGV 111410Z 35001KT 17/10 A3024 RMK A01 T01710103  RH  065%=      5-min Rain = 0
KSGV 111415Z 29001KT 18/10 A3024 RMK A01 T01750101  RH  063%=      5-min Rain = 0
KSGV 111420Z 28001KT 18/10 A3024 RMK A01 T01790102  RH  062%=      5-min Rain = 0
KSGV 111425Z 25002KT 18/10 A3024 RMK A01 T01820101  RH  060%=      5-min Rain = 0
KSGV 111430Z 23003KT 19/10 A3024 RMK A01 T01850100  RH  059%=      5-min Rain = 0
KSGV 111435Z 22003KT 19/10 A3024 RMK A01 T01900099  RH  056%=      5-min Rain = 0
KSGV 111440Z 21003KT 20/10 A3024 RMK A01 T01960100  RH  055%=      5-min Rain = 0
KSGV 111445Z 21003KT 20/10 A3024 RMK A01 T02000102  RH  054%=      5-min Rain = 0
KSGV 111450Z 22003KT 20/10 A3025 RMK A01 T02030103  RH  053%=      5-min Rain = 0
KSGV 111455Z 19004KT 21/10 A3025 RMK A01 T02060104  RH  053%=      5-min Rain = 0
KSGV 111500Z 19005KT 21/10 A3025 RMK A01 T02090103  RH  051%=      5-min Rain = 0
KSGV 111505Z 20005KT 21/10 A3025 RMK A01 T02120103  RH  050%=      5-min Rain = 0
KSGV 111510Z 20005KT 22/10 A3025 RMK A01 T02160102  RH  049%=      5-min Rain = 0
KSGV 111515Z 21005KT 22/10 A3025 RMK A01 T02190103  RH  048%=      5-min Rain = 0
KSGV 111520Z 20005KT 22/10 A3025 RMK A01 T02230100  RH  046%=      5-min Rain = 0
KSGV 111525Z 19006KT 23/10 A3025 RMK A01 T02270097  RH  045%=      5-min Rain = 0
KSGV 111530Z 20006KT 23/10 A3025 RMK A01 T02290097  RH  044%=      5-min Rain = 0
KSGV 111535Z 20005KT 23/10 A3025 RMK A01 T02300096  RH  043%=      5-min Rain = 0
KSGV 111540Z 20006KT 24/10 A3025 RMK A01 T02350097  RH  042%=      5-min Rain = 0
KSGV 111545Z 20005KT 24/10 A3025 RMK A01 T02350096  RH  042%=      5-min Rain = 0
KSGV 111550Z 19004KT 24/10 A3025 RMK A01 T02370096  RH  041%=      5-min Rain = 0
KSGV 111555Z 23004KT 24/10 A3025 RMK A01 T02400095  RH  041%=      5-min Rain = 0
KSGV 111600Z 23005KT 24/10 A3025 RMK A01 T02420096  RH  040%=      5-min Rain = 0
KSGV 111605Z 25004KT 24/10 A3025 RMK A01 T02440096  RH  040%=      5-min Rain = 0
KSGV 111610Z 22004KT 25/09 A3025 RMK A01 T02450094  RH  039%=      5-min Rain = 0
KSGV 111615Z 24004KT 25/09 A3025 RMK A01 T02460091  RH  038%=      5-min Rain = 0
KSGV 111620Z 22005KT 25/09 A3025 RMK A01 T02490090  RH  037%=      5-min Rain = 0
KSGV 111625Z 22004KT 25/09 A3025 RMK A01 T02490091  RH  037%=      5-min Rain = 0
KSGV 111630Z 23005KT 25/09 A3025 RMK A01 T02520091  RH  037%=      5-min Rain = 0
KSGV 111635Z 21003KT 25/09 A3025 RMK A01 T02510090  RH  036%=      5-min Rain = 0
KSGV 111640Z 21004KT 26/09 A3024 RMK A01 T02560089  RH  035%=      5-min Rain = 0
KSGV 111645Z 25004KT 26/09 A3024 RMK A01 T02550090  RH  036%=      5-min Rain = 0
KSGV 111650Z 21004KT 26/09 A3024 RMK A01 T02560089  RH  035%=      5-min Rain = 0
KSGV 111655Z 19003KT 26/09 A3024 RMK A01 T02590090  RH  035%=      5-min Rain = 0
KSGV 111700Z 21002KT 26/09 A3024 RMK A01 T02600089  RH  034%=      5-min Rain = 0
KSGV 111705Z 23004KT 26/09 A3024 RMK A01 T02600089  RH  034%=      5-min Rain = 0
KSGV 111710Z 20003G8KT 26/09 A3024 RMK A01 T02610089  RH  034%=      5-min Rain = 0
KSGV 111715Z 28003KT 26/09 A3024 RMK A01 T02640088  RH  033%=      5-min Rain = 0
KSGV 111720Z 34002KT 27/09 A3024 RMK A01 T02670088  RH  033%=      5-min Rain = 0
KSGV 111725Z 21004KT 27/09 A3024 RMK A01 T02710089  RH  032%=      5-min Rain = 0
KSGV 111730Z 26003KT 27/09 A3024 RMK A01 T02730087  RH  032%=      5-min Rain = 0
KSGV 111735Z 26004KT 27/09 A3023 RMK A01 T02740085  RH  031%=      5-min Rain = 0
KSGV 111740Z 27004KT 27/09 A3023 RMK A01 T02720085  RH  031%=      5-min Rain = 0
KSGV 111745Z 27002KT 27/08 A3023 RMK A01 T02720083  RH  031%=      5-min Rain = 0
KSGV 111750Z 29003KT 27/08 A3023 RMK A01 T02730083  RH  031%=      5-min Rain = 0
KSGV 111755Z 18002KT 27/08 A3023 RMK A01 T02730083  RH  031%=      5-min Rain = 0
KSGV 111800Z 14004KT 28/08 A3023 RMK A01 T02770084  RH  030%=      5-min Rain = 0
KSGV 111805Z 11002KT 28/08 A3023 RMK A01 T02790084  RH  030%=      5-min Rain = 0
KSGV 111810Z 13003KT 28/08 A3023 RMK A01 T02810084  RH  029%=      5-min Rain = 0
KSGV 111815Z 32005KT 28/09 A3022 RMK A01 T02820085  RH  029%=      5-min Rain = 0
KSGV 111820Z 33005KT 28/08 A3022 RMK A01 T02810084  RH  029%=      5-min Rain = 0
KSGV 111825Z 15002KT 28/08 A3022 RMK A01 T02810084  RH  029%=      5-min Rain = 0
KSGV 111830Z 24003KT 28/08 A3022 RMK A01 T02830084  RH  029%=      5-min Rain = 0
KSGV 111835Z 24003KT 29/08 A3022 RMK A01 T02860084  RH  029%=      5-min Rain = 0
KSGV 111840Z 34004KT 29/08 A3021 RMK A01 T02870083  RH  028%=      5-min Rain = 0
KSGV 111845Z 35005G12KT 29/08 A3021 RMK A01 T02860082  RH  028%=      5-min Rain = 0
KSGV 111850Z 00004KT 29/08 A3021 RMK A01 T02890082  RH  028%=      5-min Rain = 0
KSGV 111855Z 03004KT 29/08 A3021 RMK A01 T02900083  RH  028%=      5-min Rain = 0
KSGV 111900Z 03004KT 29/08 A3021 RMK A01 T02910082  RH  027%=      5-min Rain = 0
KSGV 111905Z 00003KT 29/08 A302 RMK A01 T02900083  RH  028%=      5-min Rain = 0
KSGV 111910Z 32003KT 29/08 A302 RMK A01 T02890082  RH  028%=      5-min Rain = 0
KSGV 111915Z 31003KT 29/08 A302 RMK A01 T02910083  RH  027%=      5-min Rain = 0
KSGV 111920Z 08004KT 30/08 A302 RMK A01 T02960083  RH  027%=      5-min Rain = 0
KSGV 111925Z 09006G11KT 30/08 A302 RMK A01 T02950082  RH  027%=      5-min Rain = 0
KSGV 111930Z 09007KT 30/08 A3019 RMK A01 T02970081  RH  026%=      5-min Rain = 0
KSGV 111935Z 09005G10KT 29/08 A3019 RMK A01 T02930081  RH  027%=      5-min Rain = 0
KSGV 111940Z 09004G9KT 30/08 A3019 RMK A01 T02980083  RH  026%=      5-min Rain = 0
KSGV 111945Z 08004KT 30/08 A3019 RMK A01 T02990082  RH  026%=      5-min Rain = 0
KSGV 111950Z 09003KT 30/08 A3018 RMK A01 T02980084  RH  027%=      5-min Rain = 0
KSGV 111955Z 08004KT 30/08 A3018 RMK A01 T02990084  RH  026%=      5-min Rain = 0
KSGV 112000Z 10001KT 30/08 A3018 RMK A01 T02980081  RH  026%=      5-min Rain = 0
KSGV 112005Z 04003KT 30/08 A3017 RMK A01 T02990080  RH  026%=      5-min Rain = 0
KSGV 112010Z 01006KT 30/08 A3017 RMK A01 T03020077  RH  025%=      5-min Rain = 0
KSGV 112015Z 01005G10KT 30/08 A3017 RMK A01 T03030077  RH  025%=      5-min Rain = 0
KSGV 112020Z 05004KT 30/08 A3017 RMK A01 T03020079  RH  025%=      5-min Rain = 0
KSGV 112025Z 08004KT 30/08 A3017 RMK A01 T03020080  RH  025%=      5-min Rain = 0
KSGV 112030Z 13002KT 30/08 A3016 RMK A01 T03040080  RH  025%=      5-min Rain = 0
KSGV 112035Z 34002KT 31/08 A3016 RMK A01 T03090080  RH  024%=      5-min Rain = 0
KSGV 112040Z 15002KT 31/08 A3016 RMK A01 T03110079  RH  024%=      5-min Rain = 0
KSGV 112045Z 03003KT 31/08 A3016 RMK A01 T03080079  RH  024%=      5-min Rain = 0
KSGV 112050Z 17005G13KT 31/08 A3015 RMK A01 T03100079  RH  024%=      5-min Rain = 0
KSGV 112055Z 13005G10KT 31/08 A3015 RMK A01 T03110082  RH  024%=      5-min Rain = 0
KSGV 112100Z 09005G10KT 31/08 A3015 RMK A01 T03100083  RH  025%=      5-min Rain = 0
KSGV 112105Z 09007KT 31/08 A3015 RMK A01 T03090083  RH  025%=      5-min Rain = 0
KSGV 112110Z 10005KT 31/08 A3015 RMK A01 T03080082  RH  025%=      5-min Rain = 0
KSGV 112115Z 04003KT 30/08 A3015 RMK A01 T03040079  RH  025%=      5-min Rain = 0
KSGV 112120Z 03002KT 30/08 A3014 RMK A01 T03030080  RH  025%=      5-min Rain = 0
KSGV 112125Z 05004KT 31/08 A3014 RMK A01 T03070080  RH  025%=      5-min Rain = 0
KSGV 112130Z 04006KT 31/08 A3014 RMK A01 T03080080  RH  024%=      5-min Rain = 0
KSGV 112135Z 11006G11KT 31/08 A3014 RMK A01 T03090081  RH  024%=      5-min Rain = 0
KSGV 112140Z 07003G9KT 31/08 A3014 RMK A01 T03080079  RH  024%=      5-min Rain = 0
KSGV 112145Z 17002KT 31/08 A3014 RMK A01 T03100079  RH  024%=      5-min Rain = 0
KSGV 112150Z 12005G11KT 31/08 A3013 RMK A01 T03130082  RH  024%=      5-min Rain = 0
KSGV 112155Z 14005KT 31/08 A3013 RMK A01 T03120082  RH  024%=      5-min Rain = 0
KSGV 112200Z 15008KT 31/08 A3013 RMK A01 T03090082  RH  025%=      5-min Rain = 0
KSGV 112205Z 17005KT 31/08 A3013 RMK A01 T03090081  RH  025%=      5-min Rain = 0
KSGV 112210Z 11003G9KT 31/08 A3012 RMK A01 T03100081  RH  024%=      5-min Rain = 0
KSGV 112215Z 10004KT 31/08 A3012 RMK A01 T03100080  RH  024%=      5-min Rain = 0
KSGV 112220Z 08006KT 31/08 A3012 RMK A01 T03100081  RH  024%=      5-min Rain = 0
KSGV 112225Z 09005KT 31/08 A3013 RMK A01 T03090079  RH  024%=      5-min Rain = 0
KSGV 112230Z 10003G8KT 31/08 A3012 RMK A01 T03060078  RH  024%=      5-min Rain = 0
KSGV 112235Z 10004G9KT 31/08 A3012 RMK A01 T03070078  RH  024%=      5-min Rain = 0
KSGV 112240Z 11004KT 31/08 A3012 RMK A01 T03070078  RH  024%=      5-min Rain = 0
KSGV 112245Z 05003KT 31/08 A3012 RMK A01 T03070076  RH  024%=      5-min Rain = 0
KSGV 112250Z 08005KT 31/08 A3012 RMK A01 T03090077  RH  024%=      5-min Rain = 0
KSGV 112255Z 12002KT 31/08 A3012 RMK A01 T03080076  RH  024%=      5-min Rain = 0
KSGV 112300Z 11002KT 31/08 A3012 RMK A01 T03090076  RH  024%=      5-min Rain = 0
KSGV 112305Z 11004KT 31/08 A3012 RMK A01 T03100077  RH  024%=      5-min Rain = 0
KSGV 112310Z 14004KT 31/08 A3012 RMK A01 T03070077  RH  024%=      5-min Rain = 0
KSGV 112315Z 13003KT 31/08 A3012 RMK A01 T03060078  RH  024%=      5-min Rain = 0
KSGV 112320Z 10004KT 31/08 A3012 RMK A01 T03070078  RH  024%=      5-min Rain = 0
KSGV 112325Z 09005KT 31/08 A3012 RMK A01 T03060079  RH  025%=      5-min Rain = 0
KSGV 112330Z 12005KT 30/08 A3012 RMK A01 T03040079  RH  025%=      5-min Rain = 0
KSGV 112335Z 08003KT 30/08 A3012 RMK A01 T03030078  RH  025%=      5-min Rain = 0
KSGV 112340Z 12003KT 30/08 A3012 RMK A01 T03030078  RH  025%=      5-min Rain = 0
KSGV 112345Z 13002KT 30/08 A3011 RMK A01 T03040078  RH  025%=      5-min Rain = 0
KSGV 112350Z 17003KT 30/08 A3011 RMK A01 T03030077  RH  025%=      5-min Rain = 0
KSGV 112355Z 14005KT 30/08 A3011 RMK A01 T03010080  RH  025%=      5-min Rain = 0
KSGV 120000Z 15006KT 30/08 A3012 RMK A01 T03000080  RH  026%=      5-min Rain = 0
KSGV 120005Z 10004KT 30/08 A3012 RMK A01 T02980081  RH  026%=      5-min Rain = 0
KSGV 120010Z 14004KT 30/08 A3012 RMK A01 T02980080  RH  026%=      5-min Rain = 0
KSGV 120015Z 14004KT 30/08 A3012 RMK A01 T02970080  RH  026%=      5-min Rain = 0
KSGV 120020Z 12004KT 30/08 A3011 RMK A01 T02950080  RH  026%=      5-min Rain = 0
KSGV 120025Z 13003KT 29/08 A3011 RMK A01 T02930083  RH  027%=      5-min Rain = 0
KSGV 120030Z 12004KT 29/08 A3011 RMK A01 T02910083  RH  028%=      5-min Rain = 0
KSGV 120035Z 12003KT 29/08 A3011 RMK A01 T02890084  RH  028%=      5-min Rain = 0
KSGV 120040Z 13002KT 29/09 A3011 RMK A01 T02870087  RH  029%=      5-min Rain = 0
KSGV 120045Z 10002KT 28/09 A3011 RMK A01 T02840089  RH  030%=      5-min Rain = 0
KSGV 120050Z 13003KT 28/09 A3011 RMK A01 T02810089  RH  030%=      5-min Rain = 0
KSGV 120055Z 14002KT 28/09 A3011 RMK A01 T02770091  RH  032%=      5-min Rain = 0
KSGV 120100Z 14003KT 27/09 A3011 RMK A01 T02720090  RH  032%=      5-min Rain = 0
KSGV 120105Z 14003KT 27/09 A3011 RMK A01 T02670091  RH  034%=      5-min Rain = 0
KSGV 120110Z 14003KT 26/09 A3011 RMK A01 T02630092  RH  034%=      5-min Rain = 0
KSGV 120115Z 14003KT 26/09 A3011 RMK A01 T02590093  RH  035%=      5-min Rain = 0
KSGV 120120Z 13002KT 26/10 A3011 RMK A01 T02580095  RH  036%=      5-min Rain = 0
KSGV 120125Z 10002KT 26/09 A3012 RMK A01 T02560094  RH  036%=      5-min Rain = 0
KSGV 120130Z 09002KT 26/09 A3012 RMK A01 T02550094  RH  037%=      5-min Rain = 0
KSGV 120135Z 10002KT 25/09 A3012 RMK A01 T02520094  RH  037%=      5-min Rain = 0
KSGV 120140Z 10002KT 25/09 A3012 RMK A01 T02490093  RH  038%=      5-min Rain = 0
KSGV 120145Z 11002KT 25/09 A3012 RMK A01 T02460092  RH  038%=      5-min Rain = 0
KSGV 120150Z 14002KT 24/09 A3012 RMK A01 T02430091  RH  039%=      5-min Rain = 0
KSGV 120155Z 13003KT 24/10 A3012 RMK A01 T02360099  RH  043%=      5-min Rain = 0
KSGV 120200Z 14003KT 24/10 A3013 RMK A01 T02360097  RH  042%=      5-min Rain = 0
KSGV 120205Z 13004KT 24/10 A3013 RMK A01 T02370099  RH  042%=      5-min Rain = 0
KSGV 120210Z 13003KT 24/10 A3013 RMK A01 T02360100  RH  043%=      5-min Rain = 0
KSGV 120215Z 13003KT 24/10 A3013 RMK A01 T02360102  RH  044%=      5-min Rain = 0
KSGV 120220Z 14003KT 24/10 A3013 RMK A01 T02350101  RH  043%=      5-min Rain = 0
KSGV 120225Z 15003KT 23/10 A3013 RMK A01 T02340099  RH  043%=      5-min Rain = 0
KSGV 120230Z 15004KT 23/10 A3013 RMK A01 T02310097  RH  043%=      5-min Rain = 0
KSGV 120235Z 14003KT 23/10 A3013 RMK A01 T02310097  RH  043%=      5-min Rain = 0
KSGV 120240Z 14003KT 23/10 A3013 RMK A01 T02310097  RH  043%=      5-min Rain = 0
KSGV 120245Z 14003KT 23/10 A3014 RMK A01 T02310097  RH  043%=      5-min Rain = 0
KSGV 120250Z 15003KT 23/10 A3014 RMK A01 T02300095  RH  043%=      5-min Rain = 0
KSGV 120255Z 14003KT 23/10 A3014 RMK A01 T02250095  RH  044%=      5-min Rain = 0
KSGV 120300Z 14002KT 22/10 A3014 RMK A01 T02150100  RH  049%=      5-min Rain = 0
KSGV 120305Z 14002KT 20/10 A3014 RMK A01 T02020101  RH  053%=      5-min Rain = 0
KSGV 120310Z 14002KT 20/10 A3014 RMK A01 T01950102  RH  056%=      5-min Rain = 0
KSGV 120315Z 19001KT 19/11 A3014 RMK A01 T01920114  RH  062%=      5-min Rain = 0
KSGV 120320Z 28001KT 19/11 A3014 RMK A01 T01880109  RH  061%=      5-min Rain = 0
KSGV 120325Z 31001KT 19/11 A3014 RMK A01 T01860109  RH  062%=      5-min Rain = 0
KSGV 120330Z 28002KT 18/11 A3014 RMK A01 T01820114  RH  066%=      5-min Rain = 0
KSGV 120335Z 28000KT 18/12 A3014 RMK A01 T01800116  RH  067%=      5-min Rain = 0
KSGV 120340Z 29000KT 18/12 A3014 RMK A01 T01810116  RH  067%=      5-min Rain = 0
KSGV 120345Z 02000KT 18/11 A3014 RMK A01 T01840108  RH  062%=      5-min Rain = 0
KSGV 120350Z 12000KT 19/10 A3014 RMK A01 T01850103  RH  060%=      5-min Rain = 0
KSGV 120355Z 10001KT 19/10 A3014 RMK A01 T01860103  RH  059%=      5-min Rain = 0
KSGV 120400Z 10002KT 19/10 A3014 RMK A01 T01860104  RH  060%=      5-min Rain = 0
KSGV 120405Z 10002KT 19/10 A3014 RMK A01 T01870103  RH  059%=      5-min Rain = 0
KSGV 120410Z 10002KT 19/10 A3014 RMK A01 T01880102  RH  058%=      5-min Rain = 0
KSGV 120415Z 09002KT 19/10 A3014 RMK A01 T01920101  RH  056%=      5-min Rain = 0
KSGV 120420Z 07002KT 19/10 A3014 RMK A01 T01920099  RH  056%=      5-min Rain = 0
KSGV 120425Z 08002KT 19/10 A3014 RMK A01 T01890103  RH  058%=      5-min Rain = 0
KSGV 120430Z 09002KT 19/11 A3014 RMK A01 T01870106  RH  060%=      5-min Rain = 0
KSGV 120435Z 10002KT 18/11 A3014 RMK A01 T01840107  RH  062%=      5-min Rain = 0
KSGV 120440Z 10001KT 18/11 A3014 RMK A01 T01800111  RH  065%=      5-min Rain = 0
KSGV 120445Z 33000KT 17/11 A3014 RMK A01 T01730107  RH  066%=      5-min Rain = 0
KSGV 120450Z 32000KT 17/10 A3014 RMK A01 T01690104  RH  067%=      5-min Rain = 0
KSGV 120455Z 32000KT 17/10 A3014 RMK A01 T01670103  RH  067%=      5-min Rain = 0
KSGV 120500Z 00000KT 17/11 A3014 RMK A01 T01660106  RH  069%=      5-min Rain = 0

Page generated in 0.0218 seconds.